createdAt,value
2018-09-22T00:01:13.332Z,12.40
2018-09-22T00:03:42.928Z,12.40
2018-09-22T00:06:11.585Z,12.40
2018-09-22T00:08:41.856Z,12.40
2018-09-22T00:11:10.534Z,12.50
2018-09-22T00:13:39.042Z,12.50
2018-09-22T00:16:07.749Z,12.50
2018-09-22T00:18:38.551Z,12.50
2018-09-22T00:21:07.322Z,12.50
2018-09-22T00:23:35.783Z,12.50
2018-09-22T00:26:04.688Z,12.50
2018-09-22T00:28:33.300Z,12.50
2018-09-22T00:31:01.885Z,12.50
2018-09-22T00:33:30.440Z,12.50
2018-09-22T00:35:58.882Z,12.50
2018-09-22T00:38:27.684Z,12.50
2018-09-22T00:40:56.439Z,12.50
2018-09-22T00:43:24.946Z,12.50
2018-09-22T00:45:53.483Z,12.50
2018-09-22T00:48:22.051Z,12.50
2018-09-22T00:50:50.673Z,12.40
2018-09-22T00:53:19.099Z,12.40
2018-09-22T00:55:47.573Z,12.40
2018-09-22T00:58:15.998Z,12.40
2018-09-22T01:00:44.605Z,12.40
2018-09-22T01:03:23.233Z,12.50
2018-09-22T01:05:51.847Z,12.40
2018-09-22T01:08:20.319Z,12.40
2018-09-22T01:10:48.784Z,12.40
2018-09-22T01:13:17.214Z,12.40
2018-09-22T01:15:45.716Z,12.30
2018-09-22T01:18:14.201Z,12.30
2018-09-22T01:20:42.819Z,12.30
2018-09-22T01:23:11.409Z,12.30
2018-09-22T01:25:39.949Z,12.30
2018-09-22T01:28:08.448Z,12.20
2018-09-22T01:30:36.910Z,12.20
2018-09-22T01:33:05.661Z,12.20
2018-09-22T01:35:34.535Z,12.20
2018-09-22T01:38:03.262Z,12.10
2018-09-22T01:40:31.846Z,12.10
2018-09-22T01:43:05.378Z,12.10
2018-09-22T01:45:33.835Z,12.10
2018-09-22T01:48:02.377Z,12.10
2018-09-22T01:50:31.064Z,12.10
2018-09-22T01:52:59.705Z,12.10
2018-09-22T01:55:28.846Z,12.10
2018-09-22T01:57:59.432Z,12.10
2018-09-22T02:00:43.183Z,12.10
2018-09-22T02:03:11.915Z,12.10
2018-09-22T02:05:40.476Z,12.00
2018-09-22T02:08:09.175Z,12.10
2018-09-22T02:10:37.752Z,12.10
2018-09-22T02:13:06.203Z,12.10
2018-09-22T02:15:34.773Z,12.10
2018-09-22T02:18:03.665Z,12.10
2018-09-22T02:20:32.223Z,12.10
2018-09-22T02:23:00.896Z,12.10
2018-09-22T02:25:29.386Z,12.10
2018-09-22T02:27:57.865Z,12.10
2018-09-22T02:30:26.467Z,12.10
2018-09-22T02:32:55.029Z,12.00
2018-09-22T02:35:23.684Z,12.00
2018-09-22T02:37:52.196Z,12.00
2018-09-22T02:40:20.832Z,12.00
2018-09-22T02:42:49.654Z,12.00
2018-09-22T02:45:18.157Z,12.00
2018-09-22T02:47:47.044Z,11.90
2018-09-22T02:50:21.196Z,11.90
2018-09-22T02:52:49.732Z,11.80
2018-09-22T02:55:18.581Z,11.80
2018-09-22T02:57:47.083Z,11.70
2018-09-22T03:00:15.693Z,11.70
2018-09-22T03:02:44.604Z,11.60
2018-09-22T03:05:13.094Z,11.60
2018-09-22T03:07:41.849Z,11.60
2018-09-22T03:10:10.368Z,11.60
2018-09-22T03:12:39.055Z,11.50
2018-09-22T03:15:07.657Z,11.50
2018-09-22T03:17:36.378Z,11.50
2018-09-22T03:20:05.060Z,11.50
2018-09-22T03:22:33.696Z,11.50
2018-09-22T03:25:03.344Z,11.50
2018-09-22T03:27:31.858Z,11.40
2018-09-22T03:30:03.064Z,11.50
2018-09-22T03:32:31.610Z,11.40
2018-09-22T03:35:01.333Z,11.40
2018-09-22T03:37:29.789Z,11.40
2018-09-22T03:39:59.070Z,11.30
2018-09-22T03:42:27.708Z,11.30
2018-09-22T03:44:56.191Z,11.30
2018-09-22T03:47:24.717Z,11.30
2018-09-22T03:49:53.130Z,11.20
2018-09-22T03:52:21.660Z,11.20
2018-09-22T03:54:50.462Z,11.20
2018-09-22T03:57:19.178Z,11.20
2018-09-22T03:59:48.013Z,11.20
2018-09-22T04:02:16.701Z,11.20
2018-09-22T04:04:45.378Z,11.20
2018-09-22T04:07:19.139Z,11.10
2018-09-22T04:09:48.028Z,11.10
2018-09-22T04:12:16.974Z,11.10
2018-09-22T04:14:45.553Z,11.10
2018-09-22T04:17:14.095Z,11.10
2018-09-22T04:19:42.904Z,11.10
2018-09-22T04:22:14.475Z,11.10
2018-09-22T04:24:42.962Z,11.10
2018-09-22T04:27:13.494Z,11.10
2018-09-22T04:29:45.039Z,11.10
2018-09-22T04:32:13.560Z,11.10
2018-09-22T04:34:42.341Z,11.10
2018-09-22T04:37:11.173Z,11.10
2018-09-22T04:39:39.827Z,11.10
2018-09-22T04:42:08.583Z,11.10
2018-09-22T04:44:37.385Z,11.10
2018-09-22T04:47:06.109Z,11.10
2018-09-22T04:49:34.700Z,11.20
2018-09-22T04:52:03.771Z,11.20
2018-09-22T04:54:32.818Z,11.20
2018-09-22T04:57:04.820Z,11.20
2018-09-22T04:59:34.139Z,11.20
2018-09-22T05:02:03.136Z,11.20
2018-09-22T05:04:31.836Z,11.20
2018-09-22T05:07:00.606Z,11.20
2018-09-22T05:09:29.401Z,11.20
2018-09-22T05:11:57.945Z,11.10
2018-09-22T05:14:26.604Z,11.20
2018-09-22T05:16:55.777Z,11.20
2018-09-22T05:19:24.310Z,11.20
2018-09-22T05:21:52.854Z,11.20
2018-09-22T05:24:21.624Z,11.20
2018-09-22T05:26:50.159Z,11.20
2018-09-22T05:29:18.953Z,11.20
2018-09-22T05:31:49.570Z,11.20
2018-09-22T05:34:18.348Z,11.20
2018-09-22T05:36:46.745Z,11.10
2018-09-22T05:39:15.369Z,11.20
2018-09-22T05:41:43.753Z,11.10
2018-09-22T05:44:12.292Z,11.10
2018-09-22T05:46:40.815Z,11.10
2018-09-22T05:49:09.200Z,11.10
2018-09-22T05:51:37.525Z,11.20
2018-09-22T05:54:05.940Z,11.10
2018-09-22T05:56:34.447Z,11.20
2018-09-22T05:59:02.809Z,11.20
2018-09-22T06:01:31.140Z,11.20
2018-09-22T06:03:59.617Z,11.20
2018-09-22T06:06:32.721Z,11.20
2018-09-22T06:09:01.081Z,11.20
2018-09-22T06:11:29.483Z,11.20
2018-09-22T06:13:59.136Z,11.30
2018-09-22T06:16:27.809Z,11.30
2018-09-22T06:18:56.283Z,11.30
2018-09-22T06:21:24.724Z,11.30
2018-09-22T06:23:53.112Z,11.40
2018-09-22T06:26:21.451Z,11.40
2018-09-22T06:28:49.991Z,11.40
2018-09-22T06:31:18.437Z,11.40
2018-09-22T06:33:46.740Z,11.50
2018-09-22T06:36:15.336Z,11.60
2018-09-22T06:38:43.909Z,11.60
2018-09-22T06:41:12.461Z,11.60
2018-09-22T06:43:40.819Z,11.70
2018-09-22T06:46:09.282Z,11.70
2018-09-22T06:48:37.782Z,11.70
2018-09-22T06:51:06.290Z,11.80
2018-09-22T06:53:34.882Z,11.80
2018-09-22T06:56:03.242Z,11.90
2018-09-22T06:58:32.787Z,11.90
2018-09-22T07:01:01.107Z,11.90
2018-09-22T07:03:29.455Z,11.90
2018-09-22T07:05:57.869Z,12.00
2018-09-22T07:08:26.212Z,12.00
2018-09-22T07:10:54.533Z,12.00
2018-09-22T07:13:23.676Z,12.00
2018-09-22T07:15:52.077Z,12.00
2018-09-22T07:18:20.429Z,12.10
2018-09-22T07:20:54.201Z,12.10
2018-09-22T07:23:22.649Z,12.20
2018-09-22T07:25:50.994Z,12.30
2018-09-22T07:28:19.484Z,12.40
2018-09-22T07:30:47.858Z,12.40
2018-09-22T07:33:16.365Z,12.40
2018-09-22T07:35:45.040Z,12.50
2018-09-22T07:38:13.428Z,12.50
2018-09-22T07:40:47.165Z,12.50
2018-09-22T07:43:15.727Z,12.50
2018-09-22T07:45:44.134Z,12.60
2018-09-22T07:48:13.847Z,12.60
2018-09-22T07:50:42.429Z,12.60
2018-09-22T07:53:10.784Z,12.70
2018-09-22T07:55:40.399Z,12.70
2018-09-22T07:58:08.914Z,12.80
2018-09-22T08:00:37.429Z,12.80
2018-09-22T08:03:07.323Z,12.90
2018-09-22T08:05:35.865Z,12.90
2018-09-22T08:08:04.222Z,13.00
2018-09-22T08:10:32.847Z,13.00
2018-09-22T08:13:01.294Z,13.10
2018-09-22T08:15:29.746Z,13.20
2018-09-22T08:17:58.127Z,13.20
2018-09-22T08:20:26.777Z,13.30
2018-09-22T08:22:57.186Z,13.30
2018-09-22T08:25:25.812Z,13.30
2018-09-22T08:27:54.314Z,13.40
2018-09-22T08:30:22.646Z,13.50
2018-09-22T08:32:51.198Z,13.50
2018-09-22T08:35:19.662Z,13.60
2018-09-22T08:37:48.050Z,13.60
2018-09-22T08:40:16.742Z,13.70
2018-09-22T08:42:45.281Z,13.70
2018-09-22T08:45:13.953Z,13.70
2018-09-22T08:47:42.444Z,13.70
2018-09-22T08:50:10.942Z,13.80
2018-09-22T08:52:39.486Z,13.80
2018-09-22T08:55:07.984Z,13.80
2018-09-22T08:57:36.865Z,13.80
2018-09-22T09:00:05.557Z,13.90
2018-09-22T09:02:33.979Z,13.90
2018-09-22T09:05:02.531Z,14.00
2018-09-22T09:07:31.040Z,14.10
2018-09-22T09:09:59.564Z,14.10
2018-09-22T09:12:27.982Z,14.20
2018-09-22T09:14:56.401Z,14.30
2018-09-22T09:17:24.747Z,14.40
2018-09-22T09:19:53.284Z,14.50
2018-09-22T09:22:21.887Z,14.60
2018-09-22T09:24:50.295Z,14.70
2018-09-22T09:27:18.717Z,14.70
2018-09-22T09:29:47.175Z,14.80
2018-09-22T09:32:17.496Z,14.80
2018-09-22T09:34:46.610Z,14.90
2018-09-22T09:37:15.565Z,14.90
2018-09-22T09:39:44.466Z,15.00
2018-09-22T09:42:12.930Z,15.00
2018-09-22T09:44:41.418Z,15.00
2018-09-22T09:47:09.941Z,15.10
2018-09-22T09:49:42.114Z,15.10
2018-09-22T09:52:10.804Z,15.20
2018-09-22T09:54:39.320Z,15.30
2018-09-22T09:57:08.123Z,15.30
2018-09-22T09:59:36.648Z,15.40
2018-09-22T10:02:05.138Z,15.40
2018-09-22T10:04:33.713Z,15.40
2018-09-22T10:07:02.337Z,15.40
2018-09-22T10:09:32.411Z,15.40
2018-09-22T10:12:13.023Z,15.50
2018-09-22T10:14:41.651Z,15.50
2018-09-22T10:17:10.108Z,15.60
2018-09-22T10:19:38.518Z,15.70
2018-09-22T10:22:07.288Z,15.80
2018-09-22T10:24:35.796Z,15.80
2018-09-22T10:27:04.208Z,15.80
2018-09-22T10:29:49.089Z,15.90
2018-09-22T10:32:17.420Z,15.90
2018-09-22T10:34:45.789Z,15.90
2018-09-22T10:37:14.212Z,15.90
2018-09-22T10:39:42.736Z,15.90
2018-09-22T10:42:11.353Z,16.00
2018-09-22T10:44:39.729Z,16.10
2018-09-22T10:47:08.174Z,16.20
2018-09-22T10:49:36.634Z,16.20
2018-09-22T10:52:05.007Z,16.20
2018-09-22T10:54:33.660Z,16.20
2018-09-22T10:57:02.227Z,16.20
2018-09-22T10:59:30.629Z,16.20
2018-09-22T11:01:59.158Z,16.20
2018-09-22T11:04:27.577Z,16.30
2018-09-22T11:06:59.706Z,16.40
2018-09-22T11:09:28.106Z,16.40
2018-09-22T11:11:56.520Z,16.40
2018-09-22T11:14:25.042Z,16.40
2018-09-22T11:16:53.490Z,16.30
2018-09-22T11:19:21.964Z,16.20
2018-09-22T11:21:50.369Z,16.10
2018-09-22T11:24:18.750Z,16.10
2018-09-22T11:26:47.304Z,16.10
2018-09-22T11:29:15.734Z,16.00
2018-09-22T11:31:44.206Z,16.00
2018-09-22T11:34:12.832Z,16.00
2018-09-22T11:36:41.478Z,16.00
2018-09-22T11:39:10.712Z,16.00
2018-09-22T11:41:39.365Z,16.00
2018-09-22T11:44:07.953Z,16.00
2018-09-22T11:46:36.375Z,16.10
2018-09-22T11:49:04.837Z,16.10
2018-09-22T11:51:33.693Z,16.10
2018-09-22T11:54:02.231Z,16.10
2018-09-22T11:56:30.752Z,16.10
2018-09-22T11:58:59.107Z,16.10
2018-09-22T12:01:27.777Z,16.10
2018-09-22T12:03:56.226Z,16.20
2018-09-22T12:06:24.792Z,16.20
2018-09-22T12:08:53.890Z,16.20
2018-09-22T12:11:22.371Z,16.20
2018-09-22T12:13:51.499Z,16.30
2018-09-22T12:16:20.094Z,16.50
2018-09-22T12:18:48.807Z,16.70
2018-09-22T12:21:17.337Z,16.80
2018-09-22T12:23:45.804Z,17.00
2018-09-22T12:26:14.191Z,17.10
2018-09-22T12:28:42.916Z,17.10
2018-09-22T12:31:11.324Z,17.20
2018-09-22T12:33:39.788Z,17.20
2018-09-22T12:36:08.362Z,17.10
2018-09-22T12:38:36.784Z,17.00
2018-09-22T12:41:05.260Z,17.00
2018-09-22T12:43:33.814Z,16.90
2018-09-22T12:46:02.295Z,16.80
2018-09-22T12:48:30.720Z,16.90
2018-09-22T12:50:59.168Z,16.90
2018-09-22T12:53:27.653Z,17.00
2018-09-22T12:55:56.133Z,17.10
2018-09-22T12:58:24.590Z,17.20
2018-09-22T13:00:53.187Z,17.30
2018-09-22T13:03:21.548Z,17.30
2018-09-22T13:05:50.005Z,17.30
2018-09-22T13:08:18.645Z,17.30
2018-09-22T13:10:47.131Z,17.20
2018-09-22T13:13:15.708Z,17.20
2018-09-22T13:15:44.383Z,17.20
2018-09-22T13:18:12.769Z,17.10
2018-09-22T13:20:41.256Z,17.10
2018-09-22T13:23:09.680Z,17.10
2018-09-22T13:25:38.092Z,17.00
2018-09-22T13:28:06.509Z,17.00
2018-09-22T13:30:35.067Z,17.00
2018-09-22T13:33:03.441Z,17.00
2018-09-22T13:35:31.872Z,17.00
2018-09-22T13:38:00.274Z,16.90
2018-09-22T13:40:28.809Z,16.90
2018-09-22T13:42:57.398Z,16.80
2018-09-22T13:45:25.838Z,16.80
2018-09-22T13:47:54.521Z,16.70
2018-09-22T13:50:22.982Z,16.60
2018-09-22T13:52:51.529Z,16.40
2018-09-22T13:55:20.020Z,16.20
2018-09-22T13:57:48.978Z,16.10
2018-09-22T14:00:17.527Z,16.00
2018-09-22T14:02:46.046Z,15.90
2018-09-22T14:05:14.477Z,15.60
2018-09-22T14:07:42.979Z,15.40
2018-09-22T14:10:11.583Z,15.10
2018-09-22T14:12:40.118Z,14.90
2018-09-22T14:15:09.758Z,14.70
2018-09-22T14:17:38.316Z,14.50
2018-09-22T14:20:06.807Z,14.40
2018-09-22T14:22:35.316Z,14.30
2018-09-22T14:25:03.812Z,14.30
2018-09-22T14:27:32.274Z,14.30
2018-09-22T14:30:00.697Z,14.20
2018-09-22T14:32:29.071Z,14.10
2018-09-22T14:34:57.756Z,14.10
2018-09-22T14:37:26.238Z,14.20
2018-09-22T14:39:54.794Z,14.20
2018-09-22T14:42:23.609Z,14.20
2018-09-22T14:44:52.120Z,14.20
2018-09-22T14:47:20.609Z,14.20
2018-09-22T14:49:49.056Z,14.10
2018-09-22T14:52:17.541Z,14.00
2018-09-22T14:54:46.180Z,14.00
2018-09-22T14:57:14.734Z,14.10
2018-09-22T14:59:43.141Z,14.10
2018-09-22T15:02:11.588Z,14.10
2018-09-22T15:04:40.976Z,14.10
2018-09-22T15:07:09.422Z,14.10
2018-09-22T15:09:37.874Z,14.00
2018-09-22T15:12:06.294Z,14.00
2018-09-22T15:14:34.776Z,14.00
2018-09-22T15:17:03.476Z,14.00
2018-09-22T15:19:32.113Z,13.90
2018-09-22T15:22:00.609Z,13.80
2018-09-22T15:24:29.175Z,13.90
2018-09-22T15:26:57.682Z,13.80
2018-09-22T15:29:26.136Z,13.80
2018-09-22T15:31:54.771Z,13.70
2018-09-22T15:34:23.299Z,13.60
2018-09-22T15:36:51.832Z,13.60
2018-09-22T15:39:20.509Z,13.50
2018-09-22T15:41:49.221Z,13.50
2018-09-22T15:44:17.657Z,13.50
2018-09-22T15:46:46.069Z,13.40
2018-09-22T15:49:14.496Z,13.40
2018-09-22T15:51:42.920Z,13.40
2018-09-22T15:54:11.439Z,13.40
2018-09-22T15:56:39.997Z,13.40
2018-09-22T15:59:08.484Z,13.40
2018-09-22T16:01:36.978Z,13.40
2018-09-22T16:04:09.002Z,13.40
2018-09-22T16:06:37.494Z,13.40
2018-09-22T16:09:07.910Z,13.30
2018-09-22T16:11:36.171Z,13.30
2018-09-22T16:14:04.574Z,13.30
2018-09-22T16:16:33.008Z,13.20
2018-09-22T16:19:01.616Z,13.20
2018-09-22T16:21:30.840Z,13.20
2018-09-22T16:23:59.136Z,13.20
2018-09-22T16:26:27.517Z,13.20
2018-09-22T16:28:56.083Z,13.10
2018-09-22T16:31:24.434Z,13.10
2018-09-22T16:33:52.776Z,13.10
2018-09-22T16:36:21.161Z,13.10
2018-09-22T16:38:49.951Z,13.00
2018-09-22T16:41:18.295Z,13.00
2018-09-22T16:43:46.599Z,13.00
2018-09-22T16:46:15.119Z,13.00
2018-09-22T16:48:43.534Z,12.90
2018-09-22T16:51:12.069Z,12.90
2018-09-22T16:53:40.809Z,12.90
2018-09-22T16:56:09.336Z,12.90
2018-09-22T16:58:37.876Z,12.90
2018-09-22T17:01:06.401Z,12.90
2018-09-22T17:03:34.795Z,12.80
2018-09-22T17:06:03.215Z,12.80
2018-09-22T17:08:31.839Z,12.80
2018-09-22T17:11:00.290Z,12.80
2018-09-22T17:13:34.928Z,12.80
2018-09-22T17:16:03.512Z,12.70
2018-09-22T17:18:32.160Z,12.70
2018-09-22T17:21:00.806Z,12.70
2018-09-22T17:23:29.622Z,12.70
2018-09-22T17:25:58.214Z,12.70
2018-09-22T17:28:26.822Z,12.70
2018-09-22T17:30:55.278Z,12.70
2018-09-22T17:33:23.700Z,12.60
2018-09-22T17:35:52.244Z,12.60
2018-09-22T17:38:20.641Z,12.60
2018-09-22T17:40:49.237Z,12.60
2018-09-22T17:43:17.743Z,12.60
2018-09-22T17:45:50.158Z,12.50
2018-09-22T17:48:18.689Z,12.50
2018-09-22T17:50:47.203Z,12.50
2018-09-22T17:53:15.577Z,12.50
2018-09-22T17:55:43.820Z,12.50
2018-09-22T17:58:12.302Z,12.50
2018-09-22T18:00:40.828Z,12.50
2018-09-22T18:03:09.298Z,12.50
2018-09-22T18:05:39.741Z,12.40
2018-09-22T18:08:12.106Z,12.40
2018-09-22T18:10:40.722Z,12.40
2018-09-22T18:13:09.143Z,12.40
2018-09-22T18:15:37.589Z,12.40
2018-09-22T18:18:11.192Z,12.30
2018-09-22T18:20:39.654Z,12.30
2018-09-22T18:23:08.109Z,12.30
2018-09-22T18:25:37.787Z,12.30
2018-09-22T18:28:06.137Z,12.30
2018-09-22T18:30:34.518Z,12.30
2018-09-22T18:33:02.915Z,12.30
2018-09-22T18:35:31.738Z,12.20
2018-09-22T18:38:00.160Z,12.20
2018-09-22T18:43:19.335Z,12.20
2018-09-22T18:48:38.255Z,12.20
2018-09-22T18:51:06.721Z,12.10
2018-09-22T18:53:35.204Z,12.10
2018-09-22T18:56:03.731Z,12.20
2018-09-22T18:58:32.233Z,12.10
2018-09-22T19:01:00.648Z,12.10
2018-09-22T19:03:29.120Z,12.10
2018-09-22T19:14:39.696Z,12.10
2018-09-22T19:17:43.490Z,12.10
2018-09-22T19:20:15.683Z,12.00
2018-09-22T19:23:02.027Z,12.00
2018-09-22T19:25:33.343Z,12.00
2018-09-22T19:28:07.117Z,12.00
2018-09-22T19:30:38.505Z,12.00
2018-09-22T19:33:11.941Z,12.00
2018-09-22T19:35:44.680Z,12.00
2018-09-22T19:38:18.546Z,12.00
2018-09-22T19:40:57.085Z,11.90
2018-09-22T19:43:29.420Z,11.90
2018-09-22T19:46:05.920Z,11.90
2018-09-22T19:48:39.697Z,11.90
2018-09-22T19:51:10.181Z,11.90
2018-09-22T19:53:40.405Z,11.90
2018-09-22T19:56:09.011Z,11.90
2018-09-22T19:58:37.724Z,11.90
2018-09-22T20:18:10.413Z,11.80
2018-09-22T20:20:39.000Z,11.80
2018-09-22T20:23:07.479Z,11.80
2018-09-22T20:25:36.036Z,11.80
2018-09-22T20:28:04.539Z,11.80
2018-09-22T20:30:33.107Z,11.80
2018-09-22T20:50:05.930Z,11.70
2018-09-22T20:52:34.555Z,11.70
2018-09-22T20:55:03.100Z,11.70
2018-09-22T20:57:31.677Z,11.70
2018-09-22T21:03:06.946Z,11.70
2018-09-22T21:05:35.475Z,11.70
2018-09-22T21:08:03.978Z,11.70
2018-09-22T21:10:32.496Z,11.70
2018-09-22T21:13:01.046Z,11.70
2018-09-22T21:15:29.752Z,11.60
2018-09-22T21:17:58.255Z,11.60
2018-09-22T21:20:26.804Z,11.60
2018-09-22T21:22:55.315Z,11.60
2018-09-22T21:25:23.827Z,11.60
2018-09-22T21:27:52.356Z,11.60
2018-09-22T21:30:20.886Z,11.60
2018-09-22T21:32:49.396Z,11.60
2018-09-22T21:35:18.321Z,11.60
2018-09-22T21:37:46.782Z,11.60
2018-09-22T21:40:15.303Z,11.60
2018-09-22T21:42:43.908Z,11.60
2018-09-22T21:45:12.526Z,11.60
2018-09-22T22:04:45.354Z,11.50
2018-09-22T22:07:13.955Z,11.50
2018-09-22T22:09:42.591Z,11.50
2018-09-22T22:12:11.032Z,11.50
2018-09-22T22:14:40.015Z,11.50
2018-09-22T22:17:08.479Z,11.50
2018-09-22T22:19:37.117Z,11.50
2018-09-22T22:22:06.169Z,11.50
2018-09-22T22:24:34.823Z,11.50
2018-09-22T22:27:03.345Z,11.50
2018-09-22T22:29:31.899Z,11.50
2018-09-22T22:32:00.421Z,11.50
2018-09-22T22:34:28.919Z,11.50
2018-09-22T22:36:57.453Z,11.40
2018-09-22T22:39:26.065Z,11.40
2018-09-22T22:41:54.749Z,11.50
2018-09-22T22:44:23.336Z,11.40
2018-09-22T22:46:51.847Z,11.40
2018-09-22T22:49:20.514Z,11.40
2018-09-22T22:51:49.028Z,11.40
2018-09-22T22:54:17.586Z,11.40
2018-09-22T22:56:45.988Z,11.40
2018-09-22T22:59:14.450Z,11.40
2018-09-22T23:01:42.974Z,11.40
2018-09-22T23:04:11.490Z,11.40
2018-09-22T23:06:39.945Z,11.40
2018-09-22T23:09:09.357Z,11.40
2018-09-22T23:11:37.924Z,11.30
2018-09-22T23:14:06.577Z,11.30
2018-09-22T23:16:35.113Z,11.40
2018-09-22T23:19:03.809Z,11.30
2018-09-22T23:21:32.311Z,11.30
2018-09-22T23:24:00.723Z,11.30
2018-09-22T23:26:29.431Z,11.30
2018-09-22T23:28:57.935Z,11.30
2018-09-22T23:31:26.413Z,11.20
2018-09-22T23:33:55.913Z,11.20
2018-09-22T23:53:29.117Z,11.20
2018-09-22T23:55:57.641Z,11.20
2018-09-22T23:58:26.097Z,11.20
